Aviation Digital Data Service (ADDS)

Output produced by METARs form (0429 UTC 22 September 2017)
found at http://www.aviationweather.gov/adds/metars/
 
LPAZ 220000Z 14006KT 9999 FEW025 18/14 Q1026
TAF LPAZ 212300Z 2200/2306 12007KT 9999 FEW020 SCT030 
     BECMG 2209/2212 19015KT SCT015 BKN035 
     TEMPO 2215/2221 5000 -RADZ BR SCT006 BKN012 
     BECMG 2221/2224 26015KT 6000 -RA SCT008 BKN015 
     TEMPO 2221/2306 26020G30KT 3000 RADZ BR SCT004 BKN008 FEW020TCU 
     PROB30 
     TEMPO 2300/2304 1500 DZRA BR BKN004
       
LPBJ 220400Z 29009KT CAVOK 13/12 Q1018
TAF LPBJ 212303Z 2200/2224 33010KT CAVOK 
     PROB30 2203/2208 2000 BCFG BKN008
       
LPFR 220400Z 06005KT CAVOK 19/14 Q1015
TAF LPFR 212300Z 2200/2224 34008KT CAVOK 
     BECMG 2204/2206 VRB03KT 
     BECMG 2210/2212 18007KT 
     BECMG 2212/2214 25008KT 
     BECMG 2219/2221 31007KT 
     BECMG 2222/2224 VRB03KT
       
LPLA 220400Z 20010G22KT 9999 FEW018 21/17 Q1021
TAF LPLA 212303Z 2200/2224 22008KT 9999 FEW020 
     BECMG 2203/2206 21015G25KT SCT020 
     TEMPO 2208/2220 24022G35KT 
     TEMPO 2213/2224 4000 SHRA SCT008 BKN014 FEW020TCU 
     BECMG 2219/2221 26015KT 
     TEMPO 2220/2224 25018G30KT
       
LPMA 220400Z 36008KT 330V040 9999 -SHRA SCT015 20/18 Q1020
TAF LPMA 212300Z 2200/2224 01013KT 9999 SCT015 
     PROB30 
     TEMPO 2200/2215 6000 -RA BKN015
       
LPMR 220400Z 35011KT 9999 BKN009 15/13 Q1019
TAF LPMR 212302Z 2200/2224 34005KT CAVOK 
     PROB40 2202/2209 3000 BR BKN004 
     BECMG 2210/2212 34010KT 
     BECMG 2221/2223 VRB02KT SCT008
       
LPMT 220400Z 34009KT CAVOK 16/12 Q1018
TAF LPMT 212302Z 2200/2224 34010KT 9999 FEW020
       
LPOV 220400Z 13006KT 0300 FG BKN004 12/12 Q1018
TAF LPOV 212302Z 2200/2224 34005KT CAVOK 
     PROB30 2202/2209 3000 BR BKN004 
     BECMG 2212/2214 33012KT 
     BECMG 2220/2222 VRB02KT
       
LPPD 220400Z 22012KT 9999 FEW020 21/16 Q1024
TAF LPPD 212300Z 2200/2224 21007KT 9999 FEW020 SCT030 
     BECMG 2209/2212 21015KT SCT012 BKN030 
     TEMPO 2212/2218 21020G30KT 5000 -RADZ BR SCT006 BKN012 
     BECMG 2218/2221 24015KT 6000 -RA SCT008 BKN015 
     TEMPO 2218/2224 24020G30KT 3000 RADZ BR SCT004 BKN008 FEW020TCU 
     PROB30 
     TEMPO 2221/2224 1500 DZRA BR BKN004
       
LPPR 220400Z 00000KT CAVOK 11/11 Q1018
TAF LPPR 212300Z 2200/2224 01005KT CAVOK 
     PROB30 
     TEMPO 2200/2208 VRB03KT 5000 BR FEW004 
     BECMG 2210/2212 32012KT 
     BECMG 2219/2221 VRB03KT
       
LPPS 220400Z 03006KT 9999 SCT015 20/17 Q1020
TAF LPPS 212300Z 2200/2306 36010KT 9999 SCT015 SCT030 
     PROB30 
     TEMPO 2200/2215 5000 -RADZ BR SCT006 BKN012 
     BECMG 2206/2209 05012KT
       
LPPT 220400Z 33017KT 9999 SCT012 15/12 Q1018
TAF LPPT 212300Z 2200/2306 34010KT 9999 FEW015 
     PROB30 
     TEMPO 2200/2206 BKN015 
     BECMG 2300/2302 34005KT SCT012
       
LPBJ 220400Z 29009KT CAVOK 13/12 Q1018
TAF LPBJ 212303Z 2200/2224 33010KT CAVOK 
     PROB30 2203/2208 2000 BCFG BKN008
       
LPFR 220400Z 06005KT CAVOK 19/14 Q1015
TAF LPFR 212300Z 2200/2224 34008KT CAVOK 
     BECMG 2204/2206 VRB03KT 
     BECMG 2210/2212 18007KT 
     BECMG 2212/2214 25008KT 
     BECMG 2219/2221 31007KT 
     BECMG 2222/2224 VRB03KT
       
LPLA 220400Z 20010G22KT 9999 FEW018 21/17 Q1021
TAF LPLA 212303Z 2200/2224 22008KT 9999 FEW020 
     BECMG 2203/2206 21015G25KT SCT020 
     TEMPO 2208/2220 24022G35KT 
     TEMPO 2213/2224 4000 SHRA SCT008 BKN014 FEW020TCU 
     BECMG 2219/2221 26015KT 
     TEMPO 2220/2224 25018G30KT
       
LPPT 220400Z 33017KT 9999 SCT012 15/12 Q1018
TAF LPPT 212300Z 2200/2306 34010KT 9999 FEW015 
     PROB30 
     TEMPO 2200/2206 BKN015 
     BECMG 2300/2302 34005KT SCT012
       
LPMA 220400Z 36008KT 330V040 9999 -SHRA SCT015 20/18 Q1020
TAF LPMA 212300Z 2200/2224 01013KT 9999 SCT015 
     PROB30 
     TEMPO 2200/2215 6000 -RA BKN015
       
LPMR 220400Z 35011KT 9999 BKN009 15/13 Q1019
TAF LPMR 212302Z 2200/2224 34005KT CAVOK 
     PROB40 2202/2209 3000 BR BKN004 
     BECMG 2210/2212 34010KT 
     BECMG 2221/2223 VRB02KT SCT008
       
LPMT 220400Z 34009KT CAVOK 16/12 Q1018
TAF LPMT 212302Z 2200/2224 34010KT 9999 FEW020
       
LPOV 220400Z 13006KT 0300 FG BKN004 12/12 Q1018
TAF LPOV 212302Z 2200/2224 34005KT CAVOK 
     PROB30 2202/2209 3000 BR BKN004 
     BECMG 2212/2214 33012KT 
     BECMG 2220/2222 VRB02KT
       
LPPD 220400Z 22012KT 9999 FEW020 21/16 Q1024
TAF LPPD 212300Z 2200/2224 21007KT 9999 FEW020 SCT030 
     BECMG 2209/2212 21015KT SCT012 BKN030 
     TEMPO 2212/2218 21020G30KT 5000 -RADZ BR SCT006 BKN012 
     BECMG 2218/2221 24015KT 6000 -RA SCT008 BKN015 
     TEMPO 2218/2224 24020G30KT 3000 RADZ BR SCT004 BKN008 FEW020TCU 
     PROB30 
     TEMPO 2221/2224 1500 DZRA BR BKN004
       
LPPR 220400Z 00000KT CAVOK 11/11 Q1018
TAF LPPR 212300Z 2200/2224 01005KT CAVOK 
     PROB30 
     TEMPO 2200/2208 VRB03KT 5000 BR FEW004 
     BECMG 2210/2212 32012KT 
     BECMG 2219/2221 VRB03KT
       
LPPS 220400Z 03006KT 9999 SCT015 20/17 Q1020
TAF LPPS 212300Z 2200/2306 36010KT 9999 SCT015 SCT030 
     PROB30 
     TEMPO 2200/2215 5000 -RADZ BR SCT006 BKN012 
     BECMG 2206/2209 05012KT
       
LPAZ 220000Z 14006KT 9999 FEW025 18/14 Q1026
TAF LPAZ 212300Z 2200/2306 12007KT 9999 FEW020 SCT030 
     BECMG 2209/2212 19015KT SCT015 BKN035 
     TEMPO 2215/2221 5000 -RADZ BR SCT006 BKN012 
     BECMG 2221/2224 26015KT 6000 -RA SCT008 BKN015 
     TEMPO 2221/2306 26020G30KT 3000 RADZ BR SCT004 BKN008 FEW020TCU 
     PROB30 
     TEMPO 2300/2304 1500 DZRA BR BKN004